Time;durP1;ratioP1;P1;durP2;ratioP2;P2;SDS_P1;SDS_P2;PMS_P1;PMS_P2;Temp;Humidity;BMP_temperature;BMP_pressure;BME280_temperature;BME280_humidity;BME280_pressure;Samples;Min_cycle;Max_cycle;Signal;HPM_P1;HPM_P2
2023/02/02 00:00:39;;;;;;;;;5.00;4.00;;;;;9.84;57.67;102795.03;2003979;28;2754819;-75
2023/02/02 00:01:53;;;;;;;;;5.00;5.00;;;;;9.82;57.86;102792.41;2035608;28;2746121;-75
2023/02/02 00:03:07;;;;;;;;;6.00;4.17;;;;;9.79;57.93;102790.63;2028403;28;2749773;-75
2023/02/02 00:04:23;;;;;;;;;7.00;5.00;;;;;9.77;57.64;102786.25;2028421;28;2747113;-75
2023/02/02 00:05:37;;;;;;;;;7.33;5.50;;;;;9.75;58.06;102790.63;2022296;28;2746449;-75
2023/02/02 00:06:50;;;;;;;;;8.50;4.17;;;;;9.75;58.00;102790.63;2028377;28;2752358;-75
2023/02/02 00:08:04;;;;;;;;;7.00;5.00;;;;;9.76;57.84;102795.00;2030976;28;2750304;-75
2023/02/02 00:09:19;;;;;;;;;9.00;5.33;;;;;9.76;58.02;102797.63;2013785;28;2754505;-75
2023/02/02 00:10:29;;;;;;;;;5.33;5.00;;;;;9.74;57.73;102794.09;1988061;28;2746087;-75
2023/02/02 00:11:42;;;;;;;;;7.00;3.67;;;;;9.74;58.03;102800.25;2040619;28;2748242;-75
2023/02/02 00:12:56;;;;;;;;;8.50;4.00;;;;;9.74;58.07;102797.63;2044757;28;2754447;-75
2023/02/02 00:14:10;;;;;;;;;6.00;4.17;;;;;9.74;57.98;102800.25;2016461;28;2734640;-75
2023/02/02 00:15:24;;;;;;;;;10.33;5.83;;;;;9.74;58.16;102799.38;2013577;28;2753425;-75
2023/02/02 00:16:37;;;;;;;;;9.25;5.25;;;;;9.75;58.10;102806.38;2004144;28;1824213;-75
2023/02/02 00:17:50;;;;;;;;;7.50;6.67;;;;;9.73;58.27;102800.25;2043815;28;2745061;-75
2023/02/02 00:19:08;;;;;;;;;6.50;5.83;;;;;9.74;58.02;102804.63;2012212;28;2741947;-75
2023/02/02 00:20:22;;;;;;;;;5.67;5.17;;;;;9.72;57.93;102801.13;2034359;28;2746099;-75
2023/02/02 00:21:37;;;;;;;;;6.50;5.50;;;;;9.71;57.89;102796.72;2034620;28;2747140;-75
2023/02/02 00:22:50;;;;;;;;;5.67;3.50;;;;;9.68;58.17;102798.47;2006242;28;2734638;-75
2023/02/02 00:24:05;;;;;;;;;6.17;4.33;;;;;9.68;58.27;102800.19;2006351;28;2745299;-75
2023/02/02 00:25:19;;;;;;;;;6.33;4.67;;;;;9.68;57.94;102790.59;2037073;28;2747144;-75
2023/02/02 00:26:32;;;;;;;;;6.67;5.00;;;;;9.67;58.07;102793.22;2035817;28;2748177;-75
2023/02/02 00:27:42;;;;;;;;;7.00;4.00;;;;;9.66;58.33;102792.34;2010715;28;2754528;-75
2023/02/02 00:28:53;;;;;;;;;4.00;3.67;;;;;9.64;58.19;102788.81;2035521;28;2742990;-75
2023/02/02 00:30:08;;;;;;;;;7.33;6.00;;;;;9.63;58.10;102788.84;2037080;28;2745085;-75
2023/02/02 00:31:22;;;;;;;;;4.83;4.00;;;;;9.62;58.38;102784.44;2012800;28;2752332;-75
2023/02/02 00:32:35;;;;;;;;;8.33;3.67;;;;;9.60;58.29;102787.06;2013327;28;2752367;-75
2023/02/02 00:33:47;;;;;;;;;10.67;5.00;;;;;9.59;58.23;102787.94;1978247;28;3488778;-75
2023/02/02 00:35:00;;;;;;;;;8.50;5.17;;;;;9.56;58.34;102791.41;2037208;28;2750272;-75
2023/02/02 00:36:10;;;;;;;;;7.00;4.00;;;;;9.54;58.34;102789.66;1994760;28;2752348;-75
2023/02/02 00:37:21;;;;;;;;;7.00;5.00;;;;;9.53;58.34;102796.66;2041917;28;2748221;-75
2023/02/02 00:38:36;;;;;;;;;8.17;5.00;;;;;9.53;58.45;102793.16;2012782;28;2750296;-75
2023/02/02 00:39:50;;;;;;;;;5.67;4.33;;;;;9.52;58.59;102794.03;2006646;28;2748177;-75
2023/02/02 00:41:04;;;;;;;;;5.50;4.83;;;;;9.50;58.32;102801.91;2013433;28;2747187;-75
2023/02/02 00:42:17;;;;;;;;;6.50;5.50;;;;;9.49;58.50;102801.88;2036875;28;2741940;-75
2023/02/02 00:43:28;;;;;;;;;5.00;4.33;;;;;9.50;58.55;102801.03;1992419;28;2746085;-75
2023/02/02 00:46:16;;;;;;;;;5.83;4.50;;;;;9.51;58.75;102800.13;2036240;28;2739850;-75
2023/02/02 00:47:27;;;;;;;;;5.00;5.00;;;;;9.49;58.71;102799.25;1978615;28;2745133;-75
2023/02/02 00:48:37;;;;;;;;;11.00;5.00;;;;;9.49;58.86;102792.25;2003492;28;2770040;-75
2023/02/02 00:49:49;;;;;;;;;8.00;6.33;;;;;9.48;58.77;102798.41;2036054;28;2735713;-75
2023/02/02 00:51:01;;;;;;;;;5.00;3.00;;;;;9.48;58.66;102795.78;1980302;28;2749232;-75
2023/02/02 00:52:11;;;;;;;;;7.33;5.00;;;;;9.49;58.71;102804.50;1995650;28;3467956;-75
2023/02/02 00:53:22;;;;;;;;;4.00;4.00;;;;;9.48;58.59;102797.50;2030129;28;2741971;-75
2023/02/02 00:54:35;;;;;;;;;6.67;3.83;;;;;9.48;58.67;102808.00;2012950;28;2746481;-75
2023/02/02 00:55:46;;;;;;;;;7.67;5.00;;;;;9.45;58.70;102799.25;2009792;28;2749290;-75
2023/02/02 00:56:57;;;;;;;;;7.33;4.00;;;;;9.44;58.92;102802.75;2026869;28;2750616;-75
2023/02/02 00:58:10;;;;;;;;;8.00;5.17;;;;;9.42;59.13;102796.59;2028862;28;2748177;-75
2023/02/02 00:59:20;;;;;;;;;6.67;5.00;;;;;9.42;58.86;102798.34;2008913;28;2748288;-75
2023/02/02 01:00:31;;;;;;;;;4.67;4.00;;;;;9.40;58.84;102795.72;2034664;28;2754448;-75
2023/02/02 01:01:45;;;;;;;;;6.50;5.00;;;;;9.41;58.53;102794.84;2014718;28;2744038;-75
2023/02/02 01:03:03;;;;;;;;;7.67;3.83;;;;;9.42;59.10;102793.97;2035773;28;2751318;-75
2023/02/02 01:04:16;;;;;;;;;3.33;2.67;;;;;9.40;59.01;102787.84;2013146;28;2754439;-75
2023/02/02 01:05:33;;;;;;;;;8.83;5.00;;;;;9.38;58.96;102794.84;2036375;28;2742968;-76
2023/02/02 01:06:46;;;;;;;;;6.00;4.00;;;;;9.39;58.78;102787.81;2035162;28;2744042;-76
2023/02/02 01:07:57;;;;;;;;;7.33;4.00;;;;;9.37;58.85;102787.84;2016703;28;2752368;-76
2023/02/02 01:09:08;;;;;;;;;6.67;6.67;;;;;9.37;58.63;102785.22;2040614;28;2740898;-75
2023/02/02 01:10:21;;;;;;;;;5.33;5.00;;;;;9.38;59.05;102786.97;2027490;28;2748170;-75
2023/02/02 01:11:35;;;;;;;;;6.00;4.83;;;;;9.38;58.88;102770.34;2037292;28;2748236;-75
2023/02/02 01:12:48;;;;;;;;;5.17;3.33;;;;;9.36;59.11;102769.47;2020595;28;2749212;-75
2023/02/02 01:13:59;;;;;;;;;7.33;4.00;;;;;9.34;59.14;102774.69;1994177;28;2750340;-75
2023/02/02 01:15:11;;;;;;;;;8.33;4.67;;;;;9.34;59.09;102770.31;2035854;28;2760683;-75
2023/02/02 01:16:24;;;;;;;;;9.00;4.00;;;;;9.33;59.19;102763.31;2012933;28;2746117;-75
2023/02/02 01:17:38;;;;;;;;;7.33;4.00;;;;;9.34;58.91;102774.69;2013091;28;2745569;-75
2023/02/02 01:18:51;;;;;;;;;9.50;5.50;;;;;9.34;59.04;102772.06;2028282;28;2755469;-76
2023/02/02 01:20:06;;;;;;;;;7.00;4.00;;;;;9.34;58.72;102769.44;2013741;28;2742994;-75
2023/02/02 01:21:20;;;;;;;;;4.67;3.67;;;;;9.33;59.20;102772.94;2027465;28;2754423;-75
2023/02/02 01:22:33;;;;;;;;;7.17;4.00;;;;;9.33;59.29;102770.31;2005618;28;2738815;-75
2023/02/02 01:23:47;;;;;;;;;4.67;3.00;;;;;9.32;59.30;102765.94;2036074;28;2745561;-75
2023/02/02 01:24:57;;;;;;;;;11.33;4.33;;;;;9.32;59.21;102768.56;2009873;28;2781605;-75
2023/02/02 01:26:10;;;;;;;;;3.00;2.67;;;;;9.31;58.87;102774.69;2016890;28;2754440;-76
2023/02/02 01:27:24;;;;;;;;;4.67;3.33;;;;;9.29;59.19;102777.28;2028989;28;2738793;-75
2023/02/02 01:28:36;;;;;;;;;10.00;3.00;;;;;9.26;59.13;102772.00;2022430;28;1848167;-75
2023/02/02 01:29:49;;;;;;;;;5.00;4.17;;;;;9.26;59.09;102779.03;2021098;28;2748198;-75
2023/02/02 01:31:09;;;;;;;;;5.50;4.00;;;;;9.25;59.41;102775.53;2005006;28;2741433;-75
2023/02/02 01:32:22;;;;;;;;;5.33;4.17;;;;;9.25;59.36;102780.78;2036783;28;2740870;-75
2023/02/02 01:33:36;;;;;;;;;6.00;4.33;;;;;9.25;59.10;102772.00;2013453;28;2744554;-75
2023/02/02 01:34:46;;;;;;;;;7.00;3.00;;;;;9.23;59.14;102774.66;2005122;28;2746141;-75
2023/02/02 01:35:57;;;;;;;;;4.67;4.67;;;;;9.22;59.35;102780.75;2025248;28;2750292;-75
2023/02/02 01:37:10;;;;;;;;;6.83;4.00;;;;;9.19;59.08;102778.97;2006542;28;2746114;-75
2023/02/02 01:38:23;;;;;;;;;6.33;3.33;;;;;9.20;59.55;102778.13;2001362;28;2748259;-75
2023/02/02 01:39:36;;;;;;;;;5.33;3.00;;;;;9.20;59.50;102778.13;2035590;28;2744051;-75
2023/02/02 01:40:57;;;;;;;;;12.33;6.00;;;;;9.21;59.44;102782.47;2008702;28;3506487;-75
2023/02/02 01:42:13;;;;;;;;;7.50;3.17;;;;;9.20;59.53;102790.34;2036327;28;2742981;-75
2023/02/02 01:43:29;;;;;;;;;5.50;3.83;;;;;9.20;59.55;102788.63;2013326;28;2747160;-75
2023/02/02 01:44:51;;;;;;;;;6.50;5.50;;;;;9.21;59.38;102784.25;2038830;28;2745060;-75
2023/02/02 01:46:13;;;;;;;;;5.67;4.50;;;;;9.19;59.17;102785.97;2005467;28;2750285;-76
2023/02/02 01:47:30;;;;;;;;;4.33;3.50;;;;;9.18;59.59;102786.84;2037421;28;2745098;-76
2023/02/02 01:48:51;;;;;;;;;2.17;1.00;;;;;9.19;59.31;102786.84;2013871;28;2729971;-75
2023/02/02 01:50:07;;;;;;;;;4.33;3.17;;;;;9.18;59.82;102784.22;2030260;28;2746174;-75
2023/02/02 01:51:25;;;;;;;;;4.50;3.50;;;;;9.18;59.46;102785.13;2004285;28;2737788;-75
2023/02/02 01:52:42;;;;;;;;;5.00;3.67;;;;;9.16;59.31;102786.81;2006429;28;2748201;-75
2023/02/02 01:53:58;;;;;;;;;9.50;5.17;;;;;9.14;59.49;102783.31;2036029;28;2759651;-75
2023/02/02 01:55:14;;;;;;;;;6.33;3.00;;;;;9.14;59.59;102793.81;2012824;28;2747129;-75
2023/02/02 01:56:34;;;;;;;;;6.17;4.00;;;;;9.13;59.57;102781.59;2036596;28;2748205;-75
2023/02/02 01:58:14;;;;;;;;;11.00;3.33;;;;;9.13;59.62;102786.81;2008964;28;3499197;-75
2023/02/02 01:59:29;;;;;;;;;6.17;4.00;;;;;9.11;59.73;102792.03;2031890;28;2750312;-75
2023/02/02 02:00:41;;;;;;;;;8.67;4.00;;;;;9.11;59.51;102792.03;2009890;28;2754435;-75
2023/02/02 02:01:53;;;;;;;;;11.33;5.00;;;;;9.10;59.31;102794.66;2009225;28;3494002;-75
2023/02/02 02:03:11;;;;;;;;;7.00;4.00;;;;;9.10;59.32;102798.19;2027247;28;2749240;-75
2023/02/02 02:04:26;;;;;;;;;3.50;2.67;;;;;9.07;59.94;102798.16;2009781;28;2746514;-75
2023/02/02 02:06:01;;;;;;;;;5.17;4.00;;;;;9.06;59.43;102800.78;2012760;28;2754911;-75
2023/02/02 02:07:14;;;;;;;;;4.83;3.33;;;;;9.05;59.95;102801.63;2013360;28;2746114;-75
2023/02/02 02:09:02;;;;;;;;;4.67;3.00;;;;;9.03;59.87;102801.63;2035745;28;2750292;-75
2023/02/02 02:10:17;;;;;;;;;9.50;4.67;;;;;9.02;59.29;102806.84;2003921;28;2755557;-75
2023/02/02 02:11:32;;;;;;;;;8.17;4.33;;;;;8.99;59.50;102795.47;2004529;28;2752341;-75
2023/02/02 02:12:49;;;;;;;;;9.17;5.33;;;;;8.96;59.65;102799.84;2012411;28;2757918;-75
2023/02/02 02:17:59;;;;;;;;;4.67;4.00;;;;;8.87;59.95;102796.25;2036275;28;2752364;-75
2023/02/02 02:19:30;;;;;;;;;5.33;4.50;;;;;8.85;59.90;102807.59;2012537;28;2750279;-75
2023/02/02 02:26:32;;;;;;;;;3.50;3.17;;;;;8.68;60.05;102790.00;2039540;28;2747168;-75
2023/02/02 02:27:48;;;;;;;;;6.50;3.83;;;;;8.68;60.29;102794.38;2035949;28;2754485;-75
2023/02/02 02:29:19;;;;;;;;;5.17;3.50;;;;;8.65;60.44;102800.47;2012154;28;2754816;-75
2023/02/02 02:30:55;;;;;;;;;6.17;3.00;;;;;8.63;60.42;102797.84;2012898;28;2748163;-75
2023/02/02 02:32:27;;;;;;;;;7.00;5.00;;;;;8.62;60.25;102797.81;2002934;28;2749258;-75
2023/02/02 02:34:23;;;;;;;;;3.50;3.50;;;;;8.59;60.42;102798.69;2036483;28;2739896;-75
2023/02/02 02:35:49;;;;;;;;;6.83;4.00;;;;;8.59;60.54;102803.94;2042405;28;2747274;-75
2023/02/02 02:37:12;;;;;;;;;5.83;4.83;;;;;8.58;60.66;102806.47;2035129;28;2749227;-75
2023/02/02 02:38:33;;;;;;;;;4.33;3.50;;;;;8.57;60.63;102808.22;2013804;28;2739926;-75
2023/02/02 02:39:56;;;;;;;;;5.17;4.00;;;;;8.55;60.66;102813.47;2028722;28;2750265;-75
2023/02/02 02:41:18;;;;;;;;;7.00;3.67;;;;;8.54;60.44;102816.06;2004003;28;2754424;-75
2023/02/02 02:42:36;;;;;;;;;6.33;4.50;;;;;8.52;60.66;102818.66;2006607;28;2750261;-75
2023/02/02 02:44:05;;;;;;;;;5.83;3.50;;;;;8.53;60.91;102817.81;2035179;28;2754431;-75
2023/02/02 02:45:18;;;;;;;;;8.00;3.00;;;;;8.52;60.73;102810.81;2010898;28;2759676;-75
2023/02/02 02:46:31;;;;;;;;;6.50;3.83;;;;;8.51;60.46;102811.69;2037822;28;2746102;-75
2023/02/02 02:47:47;;;;;;;;;4.50;3.33;;;;;8.51;60.67;102814.31;2035790;28;2741924;-75
2023/02/02 02:49:00;;;;;;;;;4.00;3.00;;;;;8.50;60.98;102809.03;2028720;28;2737766;-75
2023/02/02 02:50:14;;;;;;;;;5.33;3.67;;;;;8.48;60.82;102809.03;2028518;28;2739849;-75
2023/02/02 02:51:46;;;;;;;;;6.00;4.33;;;;;8.47;60.95;102807.25;2035562;28;2749246;-75
2023/02/02 02:53:06;;;;;;;;;4.17;2.83;;;;;8.46;60.43;102804.63;2036501;28;2735715;-75
2023/02/02 02:54:22;;;;;;;;;7.17;4.00;;;;;8.44;61.03;102799.38;2037676;28;2737754;-75
2023/02/02 02:55:46;;;;;;;;;3.83;3.17;;;;;8.43;60.89;102793.25;2036767;28;2749855;-75
2023/02/02 02:57:22;;;;;;;;;4.33;3.33;;;;;8.43;60.78;102797.63;2035845;28;2754443;-75
2023/02/02 02:58:46;;;;;;;;;4.50;3.83;;;;;8.40;61.10;102798.47;2020578;28;2746087;-75
2023/02/02 03:00:30;;;;;;;;;5.67;4.67;;;;;8.40;61.11;102800.19;2036609;28;2746098;-75
2023/02/02 03:02:03;;;;;;;;;3.50;3.17;;;;;8.39;60.84;102795.84;2027442;28;2750285;-75
2023/02/02 03:03:48;;;;;;;;;7.50;4.00;;;;;8.38;61.13;102797.56;2028043;28;2752408;-75
2023/02/02 03:05:13;;;;;;;;;4.50;3.00;;;;;8.36;61.23;102794.06;2007386;28;2737842;-75
2023/02/02 03:06:37;;;;;;;;;5.00;3.00;;;;;8.34;61.37;102798.41;2035530;28;2741960;-75
2023/02/02 03:08:25;;;;;;;;;5.50;3.67;;;;;8.33;61.43;102802.78;2026995;28;2745101;-75
2023/02/02 03:09:42;;;;;;;;;6.67;3.83;;;;;8.33;61.30;102805.41;2030903;28;2741948;-75
2023/02/02 03:10:58;;;;;;;;;5.83;4.17;;;;;8.33;60.99;102802.78;2035757;28;2750284;-75
2023/02/02 03:12:12;;;;;;;;;4.33;3.50;;;;;8.32;61.51;102797.53;2012466;28;2752344;-75
2023/02/02 03:13:26;;;;;;;;;7.17;4.33;;;;;8.33;61.57;102799.28;2040869;28;2744034;-75
2023/02/02 03:14:39;;;;;;;;;5.67;4.00;;;;;8.34;61.16;102806.28;2040943;28;2750291;-75
2023/02/02 03:15:53;;;;;;;;;4.33;3.67;;;;;8.33;61.06;102802.78;2019885;28;2751821;-75
2023/02/02 03:17:06;;;;;;;;;6.67;4.83;;;;;8.35;61.10;102801.88;2020499;28;2752368;-75
2023/02/02 03:18:23;;;;;;;;;7.17;5.83;;;;;8.35;61.13;102802.78;2035043;28;2752395;-75
2023/02/02 03:19:37;;;;;;;;;5.33;5.00;;;;;8.35;61.26;102804.50;2037290;28;2749235;-75
2023/02/02 03:20:50;;;;;;;;;6.33;4.00;;;;;8.35;61.26;102805.41;2042997;28;2754459;-75
2023/02/02 03:22:03;;;;;;;;;12.33;6.00;;;;;8.35;61.04;102802.78;2042195;28;2775263;-75
2023/02/02 03:23:16;;;;;;;;;7.67;4.17;;;;;8.35;61.15;102801.88;2020658;28;2748281;-75
2023/02/02 03:24:29;;;;;;;;;6.33;4.00;;;;;8.35;60.88;102807.13;2038832;28;2754523;-75
2023/02/02 03:25:43;;;;;;;;;6.00;3.33;;;;;8.33;61.00;102804.50;2039952;28;2752352;-75
2023/02/02 03:26:56;;;;;;;;;6.33;4.17;;;;;8.32;61.05;102798.38;2013016;28;2745083;-75
2023/02/02 03:28:09;;;;;;;;;4.50;3.33;;;;;8.31;61.23;102804.50;2029405;28;2749652;-75
2023/02/02 03:29:22;;;;;;;;;1.50;0.83;;;;;8.32;61.30;102808.88;2039444;28;2728402;-75
2023/02/02 03:30:37;;;;;;;;;4.67;4.00;;;;;8.33;61.17;102810.63;2036869;28;2740894;-75
2023/02/02 03:31:50;;;;;;;;;5.00;4.00;;;;;8.33;61.07;102809.75;2030694;28;2744503;-75
2023/02/02 03:33:04;;;;;;;;;5.17;3.17;;;;;8.33;61.58;102810.63;2037695;28;2736731;-75
2023/02/02 03:34:17;;;;;;;;;5.17;4.33;;;;;8.33;60.72;102809.75;2040605;28;2748217;-75
2023/02/02 03:35:31;;;;;;;;;6.17;4.00;;;;;8.35;61.11;102812.38;2019511;28;2748209;-75
2023/02/02 03:36:44;;;;;;;;;6.50;3.00;;;;;8.35;60.89;102812.38;2041141;28;2754828;-75
2023/02/02 03:37:57;;;;;;;;;5.67;3.83;;;;;8.35;61.08;102817.63;2036115;28;2747153;-75
2023/02/02 03:39:10;;;;;;;;;8.00;3.67;;;;;8.35;61.51;102812.38;2037324;28;2736732;-75
2023/02/02 03:40:24;;;;;;;;;5.83;4.83;;;;;8.35;61.06;102817.63;2012943;28;2747144;-75
2023/02/02 03:41:37;;;;;;;;;5.67;3.83;;;;;8.33;61.04;102821.13;2036387;28;2748194;-75
2023/02/02 03:42:50;;;;;;;;;4.17;3.17;;;;;8.34;61.22;102822.00;2013885;28;2749259;-75
2023/02/02 03:44:03;;;;;;;;;7.00;4.67;;;;;8.32;61.38;102821.97;2036345;28;2745060;-75
2023/02/02 03:45:17;;;;;;;;;8.00;4.50;;;;;8.33;60.87;102822.84;2040334;28;2760949;-75
2023/02/02 03:46:30;;;;;;;;;8.17;4.00;;;;;8.31;61.15;102822.84;2034474;28;2752383;-75
2023/02/02 03:47:43;;;;;;;;;3.00;3.00;;;;;8.32;60.90;102826.34;2012647;28;2734996;-75
2023/02/02 03:48:56;;;;;;;;;4.00;4.00;;;;;8.30;61.58;102823.69;2027737;28;2754432;-75
2023/02/02 03:50:10;;;;;;;;;5.00;4.50;;;;;8.30;61.26;102831.56;2030127;28;2738862;-75
2023/02/02 03:51:20;;;;;;;;;5.67;3.00;;;;;8.30;61.46;102821.06;1987326;28;2747151;-75
2023/02/02 03:52:31;;;;;;;;;6.33;3.67;;;;;8.29;61.36;102823.69;2035616;28;2748174;-75
2023/02/02 03:53:47;;;;;;;;;4.33;3.33;;;;;8.28;61.28;102822.81;2014487;28;2752360;-75
2023/02/02 03:55:01;;;;;;;;;5.33;3.00;;;;;8.28;61.19;102820.19;2036326;28;2749212;-76
2023/02/02 03:56:15;;;;;;;;;5.17;4.33;;;;;8.28;61.15;102827.16;2036516;28;2752356;-75
2023/02/02 03:57:25;;;;;;;;;6.33;6.00;;;;;8.28;61.42;102833.28;2010232;28;3454434;-75
2023/02/02 03:58:37;;;;;;;;;6.33;4.67;;;;;8.27;61.12;102834.13;2036117;28;2748205;-75
2023/02/02 03:59:50;;;;;;;;;6.17;4.33;;;;;8.25;61.29;102833.25;2035806;28;2754443;-75
2023/02/02 04:01:10;;;;;;;;;8.83;3.17;;;;;8.24;61.41;102831.50;2036976;28;2750301;-75
2023/02/02 04:02:23;;;;;;;;;4.67;3.17;;;;;8.25;60.84;102832.38;2013649;28;2748201;-75
2023/02/02 04:03:34;;;;;;;;;8.67;5.00;;;;;8.26;61.29;102832.41;2010820;28;2755481;-75
2023/02/02 04:04:45;;;;;;;;;5.33;5.00;;;;;8.26;61.46;102827.16;2036047;28;2746118;-75
2023/02/02 04:05:58;;;;;;;;;5.00;3.33;;;;;8.26;61.12;102829.78;2013587;28;2744044;-75
2023/02/02 04:07:11;;;;;;;;;7.33;3.67;;;;;8.26;61.10;102835.00;2027998;28;2745539;-75
2023/02/02 04:08:22;;;;;;;;;6.00;3.33;;;;;8.28;61.27;102838.53;2007463;28;2754428;-75
2023/02/02 04:09:33;;;;;;;;;3.67;2.67;;;;;8.29;61.23;102828.94;2030414;28;2726315;-75
2023/02/02 04:10:46;;;;;;;;;6.67;5.83;;;;;8.29;61.77;102835.06;2014726;28;2745107;-75
2023/02/02 04:11:59;;;;;;;;;7.17;3.83;;;;;8.30;61.45;102839.41;2044899;28;2750284;-75
2023/02/02 04:13:13;;;;;;;;;4.50;4.00;;;;;8.32;61.14;102842.06;2044747;28;2733595;-75
2023/02/02 04:14:26;;;;;;;;;6.50;3.50;;;;;8.32;61.69;102835.06;2041206;28;2736735;-75
2023/02/02 04:15:39;;;;;;;;;6.83;3.67;;;;;8.35;61.74;102833.34;2042241;28;2739853;-75
2023/02/02 04:16:52;;;;;;;;;4.17;4.00;;;;;8.36;61.51;102840.34;2012202;28;2754432;-75
2023/02/02 04:18:06;;;;;;;;;6.00;5.50;;;;;8.37;60.98;102836.88;2013741;28;2740897;-75
2023/02/02 04:19:19;;;;;;;;;5.17;3.00;;;;;8.35;60.96;102833.34;2044488;28;2740926;-75
2023/02/02 04:20:32;;;;;;;;;4.50;3.83;;;;;8.35;61.61;102831.59;2035524;28;2749230;-75
2023/02/02 04:21:45;;;;;;;;;6.50;3.00;;;;;8.36;61.73;102830.75;2036821;28;2750272;-75
2023/02/02 04:22:58;;;;;;;;;4.67;3.00;;;;;8.39;61.80;102829.91;2013359;28;2746121;-75
2023/02/02 04:24:13;;;;;;;;;4.33;3.50;;;;;8.38;61.64;102823.78;2034391;28;2754916;-75
2023/02/02 04:25:26;;;;;;;;;3.33;3.00;;;;;8.39;61.32;102835.16;2013642;28;2748173;-75
2023/02/02 04:26:40;;;;;;;;;6.67;4.50;;;;;8.40;61.26;102834.25;2036668;28;2750769;-75
2023/02/02 04:27:53;;;;;;;;;5.00;4.33;;;;;8.42;61.59;102836.03;2013456;28;2754471;-75
2023/02/02 04:29:07;;;;;;;;;3.50;3.50;;;;;8.44;61.07;102833.47;2037165;28;2735694;-75
2023/02/02 04:30:20;;;;;;;;;4.00;3.33;;;;;8.45;61.30;102845.69;2013576;28;2743002;-75
2023/02/02 04:31:33;;;;;;;;;7.33;5.67;;;;;8.46;61.17;102842.22;2036760;28;2746095;-75
2023/02/02 04:32:47;;;;;;;;;6.00;4.17;;;;;8.47;61.65;102836.09;2028625;28;2744151;-75
2023/02/02 04:34:00;;;;;;;;;6.50;5.00;;;;;8.47;61.60;102838.69;2029761;28;2747156;-75
2023/02/02 04:35:13;;;;;;;;;8.00;4.00;;;;;8.49;61.62;102839.63;2029577;28;2750268;-75
2023/02/02 04:36:26;;;;;;;;;6.17;3.00;;;;;8.50;61.49;102838.75;2035582;28;2752360;-75
2023/02/02 04:37:40;;;;;;;;;6.33;4.83;;;;;8.51;61.18;102837.88;2009747;28;2743536;-75
2023/02/02 04:38:54;;;;;;;;;6.17;4.00;;;;;8.52;61.01;102839.63;2035197;28;2750269;-75
2023/02/02 04:40:05;;;;;;;;;9.67;5.00;;;;;8.51;61.09;102832.66;2007840;28;2769062;-75
2023/02/02 04:41:18;;;;;;;;;6.40;4.00;;;;;8.53;60.88;102828.28;2035760;28;2752419;-75
2023/02/02 04:42:33;;;;;;;;;5.50;4.00;;;;;8.55;61.41;102828.31;2006441;28;2752352;-75
2023/02/02 04:43:46;;;;;;;;;3.33;2.67;;;;;8.55;61.13;102826.56;1997794;28;2751367;-75
2023/02/02 04:45:00;;;;;;;;;7.67;5.17;;;;;8.57;61.28;102834.44;2009697;28;2751331;-75
2023/02/02 04:46:13;;;;;;;;;5.00;3.33;;;;;8.58;61.08;102835.31;2035312;28;2752352;-75
2023/02/02 04:47:27;;;;;;;;;7.33;6.00;;;;;8.58;61.50;102838.84;2013689;28;2746114;-75
2023/02/02 04:48:41;;;;;;;;;4.00;4.00;;;;;8.57;61.18;102838.81;2027755;28;2749220;-75
2023/02/02 04:49:54;;;;;;;;;6.17;4.67;;;;;8.58;60.96;102832.69;2027646;28;2751307;-75
2023/02/02 04:51:13;;;;;;;;;6.17;3.83;;;;;8.58;61.08;102838.84;2004799;28;2748189;-75
2023/02/02 04:52:27;;;;;;;;;4.00;3.67;;;;;8.59;60.96;102842.38;2014498;28;2744026;-75
2023/02/02 04:53:41;;;;;;;;;6.00;3.83;;;;;8.59;61.00;102842.38;2005115;28;2749247;-76
2023/02/02 04:54:54;;;;;;;;;4.17;4.17;;;;;8.59;60.77;102837.13;2006135;28;2745072;-75
2023/02/02 04:56:12;;;;;;;;;6.67;4.83;;;;;8.60;61.06;102836.22;2036312;28;2745080;-76
2023/02/02 04:57:25;;;;;;;;;5.83;3.33;;;;;8.61;61.40;102840.63;2004177;28;2754424;-75
2023/02/02 04:58:39;;;;;;;;;5.83;4.83;;;;;8.61;60.96;102846.75;2028353;28;2739868;-75
2023/02/02 04:59:52;;;;;;;;;5.00;3.17;;;;;8.61;61.32;102844.13;2005959;28;2752348;-75
2023/02/02 05:01:24;;;;;;;;;6.50;5.00;;;;;8.62;61.00;102842.38;2013577;28;2746567;-75
2023/02/02 05:02:35;;;;;;;;;10.00;5.33;;;;;8.63;61.30;102849.38;2010766;28;2755480;-75
2023/02/02 05:03:49;;;;;;;;;8.50;6.33;;;;;8.64;61.77;102845.91;2037049;28;2731536;-75
2023/02/02 05:05:05;;;;;;;;;7.83;4.00;;;;;8.64;61.33;102836.28;2044865;28;2745068;-75
2023/02/02 05:06:18;;;;;;;;;7.83;4.67;;;;;8.64;61.54;102844.13;2037778;28;2756535;-75
2023/02/02 05:07:32;;;;;;;;;6.00;4.83;;;;;8.65;61.52;102853.78;2027262;28;2749255;-75
2023/02/02 05:08:47;;;;;;;;;7.83;5.67;;;;;8.66;61.49;102846.78;2027711;28;2748237;-75
2023/02/02 05:10:00;;;;;;;;;10.00;10.00;;;;;8.68;60.94;102847.69;2005882;28;2744047;-75
2023/02/02 05:11:20;;;;;;;;;8.67;8.00;;;;;8.67;61.12;102840.66;2012773;28;2751641;-75
2023/02/02 05:12:33;;;;;;;;;6.33;4.83;;;;;8.69;61.02;102844.22;2027711;28;2746095;-75
2023/02/02 05:13:48;;;;;;;;;8.83;6.00;;;;;8.70;61.11;102847.69;2029271;28;2746107;-75
2023/02/02 05:15:02;;;;;;;;;8.00;6.00;;;;;8.70;61.28;102839.81;2035042;28;2739877;-75
2023/02/02 05:16:16;;;;;;;;;10.17;5.83;;;;;8.71;61.46;102852.97;2036064;28;2750284;-75
2023/02/02 05:17:29;;;;;;;;;5.67;4.00;;;;;8.71;61.27;102846.84;2014914;28;2749259;-75
2023/02/02 05:18:47;;;;;;;;;8.67;5.00;;;;;8.71;60.97;102852.06;2040740;28;2746205;-75
2023/02/02 05:20:00;;;;;;;;;6.50;5.33;;;;;8.71;61.17;102850.34;2040836;28;2752380;-75
2023/02/02 05:21:13;;;;;;;;;5.50;5.50;;;;;8.73;61.11;102851.22;2041737;28;2746097;-75
2023/02/02 05:22:26;;;;;;;;;5.33;4.00;;;;;8.74;61.28;102857.34;2039426;28;2739864;-75
2023/02/02 05:23:39;;;;;;;;;6.00;3.00;;;;;8.75;61.46;102854.75;2035988;28;2738828;-75
2023/02/02 05:24:50;;;;;;;;;5.00;4.00;;;;;8.74;61.44;102852.97;1986549;28;2750271;-75
2023/02/02 05:26:01;;;;;;;;;6.33;5.00;;;;;8.76;61.36;102859.13;2040371;28;2745050;-75
2023/02/02 05:27:14;;;;;;;;;4.50;3.67;;;;;8.77;61.16;102855.63;2035266;28;2752852;-75
2023/02/02 05:28:28;;;;;;;;;5.00;4.33;;;;;8.75;61.07;102865.22;2013617;28;2750261;-75
2023/02/02 05:29:38;;;;;;;;;11.33;4.00;;;;;8.75;61.49;102867.84;2016217;28;3508634;-76
2023/02/02 05:30:50;;;;;;;;;8.67;5.00;;;;;8.77;61.67;102863.50;2042632;28;2746126;-75
2023/02/02 05:32:03;;;;;;;;;7.50;4.67;;;;;8.78;61.25;102862.63;2022124;28;2748182;-75
2023/02/02 05:33:19;;;;;;;;;4.50;4.17;;;;;8.80;61.12;102857.41;2036608;28;2750623;-75
2023/02/02 05:34:32;;;;;;;;;6.33;5.33;;;;;8.81;61.22;102860.91;2035814;28;2743402;-75
2023/02/02 05:35:49;;;;;;;;;6.83;4.17;;;;;8.81;61.50;102859.16;2036148;28;2754436;-75
2023/02/02 05:37:02;;;;;;;;;6.17;4.00;;;;;8.83;61.06;102860.06;2035510;28;2746512;-75
2023/02/02 05:38:15;;;;;;;;;5.50;3.17;;;;;8.83;61.04;102859.16;2013030;28;2754428;-75
2023/02/02 05:39:29;;;;;;;;;8.17;4.33;;;;;8.84;61.18;102863.56;2044628;28;2750533;-75
2023/02/02 05:40:39;;;;;;;;;6.67;5.00;;;;;8.84;61.21;102860.94;2008422;28;2750289;-75
2023/02/02 05:41:50;;;;;;;;;8.00;5.33;;;;;8.85;61.48;102860.06;2033021;28;2749238;-75
2023/02/02 05:43:04;;;;;;;;;7.67;5.67;;;;;8.86;61.25;102861.81;2041125;28;2739845;-75
2023/02/02 05:44:14;;;;;;;;;6.67;4.00;;;;;8.86;61.40;102865.34;2016113;28;2754428;-75
2023/02/02 05:45:26;;;;;;;;;4.25;4.25;;;;;8.87;61.02;102860.94;2026226;28;2752345;-75
2023/02/02 05:46:40;;;;;;;;;7.00;5.00;;;;;8.88;61.34;102865.34;2012468;28;2748209;-75
2023/02/02 05:47:54;;;;;;;;;7.50;5.00;;;;;8.88;61.52;102870.59;2040225;28;2742962;-75
2023/02/02 05:49:05;;;;;;;;;5.67;4.00;;;;;8.88;61.96;102862.72;2001120;28;2754530;-75
2023/02/02 05:50:16;;;;;;;;;8.67;5.67;;;;;8.87;61.78;102867.06;2027866;28;2742969;-75
2023/02/02 05:51:43;;;;;;;;;6.50;4.33;;;;;8.88;61.48;102866.22;2042345;28;2744107;-75
2023/02/02 05:52:58;;;;;;;;;7.33;5.83;;;;;8.88;61.41;102865.34;2039087;28;2745057;-75
2023/02/02 05:54:11;;;;;;;;;7.33;5.00;;;;;8.89;61.94;102867.06;2037159;28;2739887;-75
2023/02/02 05:55:25;;;;;;;;;8.83;5.33;;;;;8.88;61.71;102868.84;2036000;28;2753380;-75
2023/02/02 05:56:38;;;;;;;;;5.00;5.00;;;;;8.89;61.38;102867.97;2042753;28;2740889;-75
2023/02/02 05:57:48;;;;;;;;;10.33;6.00;;;;;8.89;61.25;102867.06;2008070;28;3477697;-75